Griston, United Kingdom
Current Conditions -  °F | °C
As of 5:50 AM on Sunday 23 Nov 2014 (Local Time) from EGYM Reporting Station
Moderate Rain Moderate Rain  
Wind Chill: 50°   Ceiling: 300
Heat Index: 50°   Visibility: 2mi
Dew Point: 50°   Wind: 10mph
Humidity: 100%   Direction: 320°NW
Pressure: 29.94"   Gusts: NA
Location:  52.56°N, 0.86°E
Report Text: EGYM 230550Z AUTO 32009KT 3300 RA BKN003/// SCT010/// 10/10 Q1014
Loading
Personal Weather Stations






























Interactive Weather Map New forecast layout! Learn more

10-Day Weather Forecast

Advertisements
Track Severe Weather on mobile